Time;durP1;ratioP1;P1;durP2;ratioP2;P2;SDS_P1;SDS_P2;PMS_P1;PMS_P2;Temp;Humidity;BMP_temperature;BMP_pressure;BME280_temperature;BME280_humidity;BME280_pressure;Samples;Min_cycle;Max_cycle;Signal;HPM_P1;HPM_P2
2021/09/13 00:00:19;;;;;;;17.42;14.93;;;;;;;13.18;75.72;97228.06;1830412;77;28118;-87
2021/09/13 00:02:47;;;;;;;20.48;15.85;;;;;;;13.17;75.80;97228.59;1827773;78;25724;-88
2021/09/13 00:05:14;;;;;;;16.67;13.65;;;;;;;13.23;75.94;97238.52;1812673;78;25742;-90
2021/09/13 00:07:41;;;;;;;16.97;14.33;;;;;;;13.27;75.93;97227.52;1807277;78;25707;-90
2021/09/13 00:10:09;;;;;;;15.65;13.75;;;;;;;13.31;75.92;97231.39;1811223;78;25246;-89
2021/09/13 00:12:35;;;;;;;20.23;14.68;;;;;;;13.34;75.90;97225.52;1826124;76;27877;-89
2021/09/13 00:15:03;;;;;;;18.50;13.98;;;;;;;13.37;75.91;97228.83;1797982;76;25786;-89
2021/09/13 00:17:29;;;;;;;20.60;15.05;;;;;;;13.38;75.96;97225.88;1797677;78;25767;-90
2021/09/13 00:19:56;;;;;;;18.30;14.13;;;;;;;13.38;75.98;97225.05;1820690;77;25822;-90
2021/09/13 00:22:23;;;;;;;18.55;14.25;;;;;;;13.41;76.05;97224.03;1814661;78;25815;-88
2021/09/13 00:24:49;;;;;;;17.65;13.90;;;;;;;13.43;76.04;97223.81;1830040;78;28066;-88
2021/09/13 00:27:16;;;;;;;16.00;13.10;;;;;;;13.45;76.00;97231.19;1830372;77;25201;-89
2021/09/13 00:29:42;;;;;;;15.48;12.90;;;;;;;13.46;75.96;97234.20;1813344;77;25720;-87
2021/09/13 00:32:09;;;;;;;15.70;13.18;;;;;;;13.44;75.94;97237.66;1839046;77;25747;-87
2021/09/13 00:34:36;;;;;;;15.55;12.60;;;;;;;13.38;75.93;97234.02;1840950;76;25733;-89
2021/09/13 00:37:04;;;;;;;14.83;12.53;;;;;;;13.39;75.99;97229.42;1841616;77;27591;-89
2021/09/13 00:39:30;;;;;;;15.05;13.20;;;;;;;13.40;76.00;97227.02;1840847;77;26344;-90
2021/09/13 00:41:57;;;;;;;16.93;13.13;;;;;;;13.40;76.01;97225.66;1807783;77;25784;-87
2021/09/13 00:44:24;;;;;;;20.57;14.13;;;;;;;13.40;76.05;97222.94;1841095;77;25819;-89
2021/09/13 00:46:51;;;;;;;15.38;13.30;;;;;;;13.38;76.10;97228.59;1837257;77;25688;-89
2021/09/13 00:49:18;;;;;;;15.70;13.15;;;;;;;13.40;76.11;97222.94;1812494;77;27539;-90
2021/09/13 00:51:44;;;;;;;16.10;14.38;;;;;;;13.40;76.14;97221.59;1817290;77;25843;-90
2021/09/13 00:54:11;;;;;;;17.57;13.48;;;;;;;13.39;76.18;97219.41;1832221;77;25735;-89
2021/09/13 00:56:42;;;;;;;15.95;13.03;;;;;;;13.38;76.20;97222.34;1841148;77;25731;-89
2021/09/13 00:59:10;;;;;;;14.18;12.68;;;;;;;13.37;76.23;97218.80;1838842;77;25787;-86
2021/09/13 01:01:36;;;;;;;14.25;12.75;;;;;;;13.38;76.21;97212.86;1811205;77;27445;-89
2021/09/13 01:04:03;;;;;;;16.95;12.55;;;;;;;13.38;76.22;97219.63;1841031;77;25674;-89
2021/09/13 01:06:30;;;;;;;14.15;12.28;;;;;;;13.34;76.25;97214.67;1841148;77;25725;-90
2021/09/13 01:08:57;;;;;;;17.10;12.82;;;;;;;13.35;76.26;97215.50;1813526;77;25718;-86
2021/09/13 01:11:23;;;;;;;15.38;13.20;;;;;;;13.37;76.24;97212.55;1836020;77;25740;-87
2021/09/13 01:13:50;;;;;;;21.93;12.28;;;;;;;13.36;76.20;97207.66;1841052;77;27556;-89
2021/09/13 01:16:17;;;;;;;15.95;13.65;;;;;;;13.34;76.18;97203.83;1840847;76;25793;-89
2021/09/13 01:18:43;;;;;;;14.50;11.97;;;;;;;13.33;76.20;97203.53;1841035;77;25748;-90
2021/09/13 01:21:10;;;;;;;15.80;12.35;;;;;;;13.33;76.21;97204.05;1807933;77;25725;-90
2021/09/13 01:23:37;;;;;;;14.33;12.47;;;;;;;13.31;76.21;97207.00;1840869;77;25728;-88
2021/09/13 01:26:05;;;;;;;16.23;12.47;;;;;;;13.28;76.17;97199.32;1841031;77;27535;-90
2021/09/13 01:28:32;;;;;;;15.38;11.95;;;;;;;13.27;76.18;97199.05;1841016;77;25699;-89
2021/09/13 01:30:59;;;;;;;15.48;13.13;;;;;;;13.24;76.11;97199.52;1840701;76;25732;-87
2021/09/13 01:33:25;;;;;;;13.18;11.83;;;;;;;13.20;76.09;97196.96;1805605;77;25988;-89
2021/09/13 01:35:52;;;;;;;16.85;12.33;;;;;;;13.18;76.10;97190.94;1801307;77;25791;-91
2021/09/13 01:38:26;;;;;;;15.30;12.10;;;;;;;13.14;76.10;97191.62;1841104;77;27351;-86
2021/09/13 01:40:53;;;;;;;13.55;12.05;;;;;;;13.10;76.13;97196.68;1812163;77;25797;-89
2021/09/13 01:43:20;;;;;;;17.40;12.63;;;;;;;13.07;76.11;97198.48;1840972;77;25645;-89
2021/09/13 01:45:47;;;;;;;13.83;11.70;;;;;;;13.05;76.09;97195.70;1841047;77;25668;-90
2021/09/13 01:48:13;;;;;;;13.43;12.03;;;;;;;13.02;76.12;97190.78;1841133;77;25706;-88
2021/09/13 01:50:40;;;;;;;13.05;11.65;;;;;;;12.99;76.08;97194.24;1840924;77;27188;-90
2021/09/13 01:53:07;;;;;;;13.30;11.48;;;;;;;12.97;76.11;97199.59;1837025;77;25965;-89
2021/09/13 01:55:34;;;;;;;12.98;11.48;;;;;;;12.95;76.13;97196.28;1831612;77;25669;-89
2021/09/13 01:58:01;;;;;;;13.08;10.85;;;;;;;12.94;76.12;97205.46;1841118;77;25909;-86
2021/09/13 02:00:27;;;;;;;13.48;11.50;;;;;;;12.93;76.11;97214.64;1840968;77;25691;-89
2021/09/13 02:02:54;;;;;;;14.20;11.22;;;;;;;12.90;76.14;97207.00;1838843;77;27363;-90
2021/09/13 02:05:20;;;;;;;11.50;10.30;;;;;;;12.86;76.09;97205.80;1840939;77;25787;-90
2021/09/13 02:07:47;;;;;;;12.30;10.82;;;;;;;12.82;76.07;97204.59;1803789;77;25857;-89
2021/09/13 02:10:14;;;;;;;13.15;11.50;;;;;;;12.80;76.09;97206.73;1793759;77;26411;-88
2021/09/13 02:12:40;;;;;;;15.10;11.60;;;;;;;12.81;76.21;97211.89;1836980;77;25644;-90
2021/09/13 02:15:08;;;;;;;18.32;11.83;;;;;;;12.83;76.25;97211.67;1841080;77;27362;-90
2021/09/13 02:17:34;;;;;;;12.33;11.00;;;;;;;12.76;76.13;97202.83;1840842;77;25648;-90
2021/09/13 02:20:01;;;;;;;15.15;11.75;;;;;;;12.70;76.18;97195.59;1841022;77;25711;-88
2021/09/13 02:22:28;;;;;;;14.00;11.73;;;;;;;12.65;76.23;97203.08;1840935;77;25770;-88
2021/09/13 02:24:54;;;;;;;10.55;9.45;;;;;;;12.62;76.23;97199.47;1840657;76;25699;-90
2021/09/13 02:27:21;;;;;;;13.53;10.03;;;;;;;12.58;76.19;97204.50;1841024;77;27535;-88
2021/09/13 02:29:47;;;;;;;13.83;11.40;;;;;;;12.53;76.17;97208.97;1829866;77;25687;-87
2021/09/13 02:32:14;;;;;;;13.58;10.43;;;;;;;12.48;76.28;97214.23;1728197;77;25665;-84
2021/09/13 02:34:41;;;;;;;12.30;10.75;;;;;;;12.45;76.25;97210.09;1696134;83;25719;-87
2021/09/13 02:37:07;;;;;;;12.50;11.20;;;;;;;12.40;76.32;97211.84;1724888;81;25781;-85
2021/09/13 02:39:34;;;;;;;12.30;11.03;;;;;;;12.40;76.44;97211.84;1694603;83;27353;-86
2021/09/13 02:42:01;;;;;;;12.68;11.30;;;;;;;12.35;76.45;97211.16;1696008;83;25904;-84
2021/09/13 02:44:28;;;;;;;15.70;11.00;;;;;;;12.36;76.55;97214.17;1686040;83;25719;-86
2021/09/13 02:46:54;;;;;;;11.53;10.15;;;;;;;12.34;76.54;97214.92;1690625;84;25810;-86
2021/09/13 02:49:21;;;;;;;11.12;10.03;;;;;;;12.32;76.49;97207.55;1703918;82;25781;-83
2021/09/13 02:51:47;;;;;;;14.90;11.53;;;;;;;12.27;76.51;97212.83;1700776;82;27213;-87
2021/09/13 02:54:14;;;;;;;16.02;10.98;;;;;;;12.27;76.49;97210.13;1694625;84;25761;-85
2021/09/13 02:56:40;;;;;;;16.25;11.10;;;;;;;12.25;76.45;97218.47;1703478;84;26655;-83
2021/09/13 02:59:07;;;;;;;16.77;11.97;;;;;;;12.26;76.45;97212.53;1725096;81;26421;-85
2021/09/13 03:01:34;;;;;;;15.10;10.78;;;;;;;12.21;76.35;97219.96;1694687;84;25807;-87
2021/09/13 03:04:00;;;;;;;12.90;11.30;;;;;;;12.14;76.44;97215.69;1725095;81;26851;-87
2021/09/13 03:06:27;;;;;;;12.70;10.85;;;;;;;12.15;76.66;97214.64;1694411;83;26477;-84
2021/09/13 03:08:53;;;;;;;14.18;10.82;;;;;;;12.16;76.73;97219.00;1725263;81;25817;-87
2021/09/13 03:11:22;;;;;;;15.72;11.55;;;;;;;12.16;76.78;97219.00;1694644;84;25729;-84
2021/09/13 03:13:49;;;;;;;12.98;11.65;;;;;;;12.18;76.81;97219.61;1724938;81;25451;-84
2021/09/13 03:16:15;;;;;;;13.48;11.63;;;;;;;12.20;76.85;97217.48;1694635;83;28181;-88
2021/09/13 03:18:42;;;;;;;14.40;11.05;;;;;;;12.16;76.84;97217.13;1725073;81;25772;-86
2021/09/13 03:21:08;;;;;;;14.07;11.97;;;;;;;12.15;77.00;97215.99;1694636;83;25976;-83
2021/09/13 03:23:36;;;;;;;13.05;11.55;;;;;;;12.16;77.09;97224.41;1724907;81;25783;-85
2021/09/13 03:26:03;;;;;;;16.85;11.90;;;;;;;12.17;77.17;97215.25;1694632;83;25702;-87
2021/09/13 03:28:29;;;;;;;14.58;11.73;;;;;;;12.17;77.21;97220.66;1725102;81;27522;-87
2021/09/13 03:30:56;;;;;;;12.23;10.95;;;;;;;12.18;77.29;97225.02;1694493;84;25965;-83
2021/09/13 03:33:23;;;;;;;13.65;10.70;;;;;;;12.20;77.37;97225.59;1747420;81;25784;-84
2021/09/13 03:35:50;;;;;;;12.73;11.43;;;;;;;12.15;77.35;97217.34;1731364;81;26512;-85
2021/09/13 03:38:16;;;;;;;12.58;10.82;;;;;;;12.15;77.48;97220.05;1730141;81;25694;-87
2021/09/13 03:40:43;;;;;;;13.03;10.82;;;;;;;12.18;77.52;97226.37;1747771;82;28406;-88
2021/09/13 03:43:09;;;;;;;13.45;11.57;;;;;;;12.21;77.51;97224.55;1747808;82;25823;-87
2021/09/13 03:45:36;;;;;;;12.93;11.35;;;;;;;12.24;77.58;97228.98;1747756;82;25961;-84
2021/09/13 03:48:03;;;;;;;13.93;11.95;;;;;;;12.26;77.61;97231.47;1732455;81;25680;-84
2021/09/13 03:50:30;;;;;;;14.38;11.60;;;;;;;12.26;77.63;97230.95;1747712;82;25907;-89
2021/09/13 03:52:56;;;;;;;13.53;10.88;;;;;;;12.28;77.58;97232.61;1747578;81;28125;-87
2021/09/13 03:55:23;;;;;;;15.58;11.40;;;;;;;12.28;77.56;97232.61;1747549;82;26394;-85
2021/09/13 03:57:50;;;;;;;15.80;11.12;;;;;;;12.30;77.54;97229.98;1747724;81;25648;-87
2021/09/13 04:00:17;;;;;;;13.05;11.75;;;;;;;12.29;77.57;97223.44;1747815;82;25721;-84
2021/09/13 04:02:46;;;;;;;13.50;11.60;;;;;;;12.30;77.57;97232.69;1747626;82;25779;-84
2021/09/13 04:05:19;;;;;;;12.88;10.98;;;;;;;12.33;77.56;97241.68;1747516;82;28200;-84
2021/09/13 04:12:54;;;;;;;17.00;12.45;;;;;;;12.21;77.64;97229.95;1620203;88;26483;-88
2021/09/13 04:15:21;;;;;;;15.25;12.68;;;;;;;12.15;77.83;97229.00;1747946;81;25949;-84
2021/09/13 04:17:47;;;;;;;15.03;11.85;;;;;;;12.18;77.98;97235.84;1747686;82;28177;-87
2021/09/13 04:20:14;;;;;;;18.57;12.93;;;;;;;12.21;78.04;97238.08;1747786;82;25899;-83
2021/09/13 04:22:40;;;;;;;15.75;12.28;;;;;;;12.24;78.06;97237.63;1728412;82;25752;-83
2021/09/13 04:25:08;;;;;;;16.55;12.03;;;;;;;12.27;78.16;97241.25;1746735;82;25780;-86
2021/09/13 04:27:35;;;;;;;24.47;12.93;;;;;;;12.30;78.17;97236.75;1715574;82;25812;-93
2021/09/13 04:30:03;;;;;;;20.35;12.55;;;;;;;12.34;78.20;97239.28;1721714;82;27370;-88
2021/09/13 04:32:29;;;;;;;13.80;12.37;;;;;;;12.37;78.27;97239.36;1701401;82;26375;-87
2021/09/13 04:34:56;;;;;;;15.88;12.68;;;;;;;12.39;78.24;97238.61;1712620;82;26686;-83
2021/09/13 04:37:23;;;;;;;16.30;12.33;;;;;;;12.42;78.32;97237.64;1715193;83;25914;-94
2021/09/13 04:39:49;;;;;;;19.95;12.80;;;;;;;12.44;78.31;97238.22;1718921;82;25756;-93
2021/09/13 04:42:16;;;;;;;17.87;13.50;;;;;;;12.47;78.43;97237.77;1726727;82;27502;-95
2021/09/13 04:44:42;;;;;;;14.07;12.43;;;;;;;12.51;78.45;97245.75;1740011;81;25235;-93
2021/09/13 04:47:09;;;;;;;13.83;12.35;;;;;;;12.54;78.48;97242.59;1726053;82;25891;-94
2021/09/13 04:49:35;;;;;;;19.32;13.85;;;;;;;12.55;78.56;97243.42;1706701;82;25853;-94
2021/09/13 04:52:02;;;;;;;19.70;15.00;;;;;;;12.55;78.66;97240.19;1727671;82;26352;-94
2021/09/13 04:54:29;;;;;;;23.22;16.57;;;;;;;12.58;78.73;97240.23;1727119;81;28032;-95
2021/09/13 04:56:56;;;;;;;23.85;18.20;;;;;;;12.61;78.73;97240.61;1727474;82;25811;-96
2021/09/13 04:59:22;;;;;;;23.42;17.37;;;;;;;12.66;78.84;97245.36;1727417;82;25438;-91
2021/09/13 05:01:49;;;;;;;20.50;15.15;;;;;;;12.69;78.89;97231.86;1727357;82;25765;-92
2021/09/13 05:04:15;;;;;;;23.73;17.73;;;;;;;12.72;78.84;97237.66;1727276;82;25880;-92
2021/09/13 05:06:42;;;;;;;27.13;18.57;;;;;;;12.77;78.87;97238.34;1727369;82;27348;-93
2021/09/13 05:09:09;;;;;;;25.30;18.57;;;;;;;12.77;78.94;97235.63;1709003;82;25927;-93
2021/09/13 05:11:36;;;;;;;24.98;18.45;;;;;;;12.80;78.90;97242.74;1724634;82;25729;-94
2021/09/13 05:14:03;;;;;;;22.95;17.77;;;;;;;12.84;78.92;97241.23;1726918;81;25667;-93
2021/09/13 05:16:32;;;;;;;23.75;17.50;;;;;;;12.89;78.93;97245.98;1727124;81;25766;-92
2021/09/13 05:18:58;;;;;;;30.55;18.10;;;;;;;12.93;78.92;97252.57;1727077;81;27436;-90
2021/09/13 05:21:25;;;;;;;29.67;18.42;;;;;;;12.94;79.02;97245.57;1706396;82;25728;-95
2021/09/13 05:23:51;;;;;;;26.85;17.82;;;;;;;12.99;79.05;97246.25;1727237;82;25819;-94
2021/09/13 05:26:18;;;;;;;23.40;17.05;;;;;;;13.05;79.03;97248.02;1727161;82;25769;-91
2021/09/13 05:28:44;;;;;;;22.65;16.65;;;;;;;13.09;78.95;97240.27;1727307;82;25315;-93
2021/09/13 05:31:11;;;;;;;23.02;17.07;;;;;;;13.15;78.96;97252.41;1727476;82;27525;-95
2021/09/13 05:33:38;;;;;;;25.10;17.17;;;;;;;13.19;79.02;97253.58;1711854;82;25744;-95
2021/09/13 05:36:05;;;;;;;20.75;16.30;;;;;;;13.21;79.16;97254.70;1682216;84;25836;-93
2021/09/13 05:38:35;;;;;;;23.52;16.23;;;;;;;13.24;79.17;97248.30;1715327;83;26504;-94
2021/09/13 05:41:00;;;;;;;23.73;18.02;;;;;;;13.32;79.23;97250.67;1676523;84;25770;-88
2021/09/13 05:43:26;;;;;;;22.32;16.95;;;;;;;13.43;79.25;97249.56;1690513;84;28621;-92
2021/09/13 05:45:54;;;;;;;23.25;16.00;;;;;;;13.50;79.29;97252.48;1686646;84;26336;-85
2021/09/13 05:48:23;;;;;;;24.20;17.07;;;;;;;13.60;79.21;97253.27;1694679;83;25792;-93
2021/09/13 05:50:50;;;;;;;28.77;16.93;;;;;;;13.67;79.17;97252.08;1698659;84;25716;-92
2021/09/13 05:53:17;;;;;;;21.17;16.57;;;;;;;13.74;79.30;97262.00;1678798;84;25779;-92
2021/09/13 05:55:43;;;;;;;22.65;16.55;;;;;;;13.80;79.28;97259.69;1678715;84;27979;-92
2021/09/13 05:58:11;;;;;;;22.50;16.50;;;;;;;13.83;79.33;97262.77;1686676;84;25692;-93
2021/09/13 06:00:38;;;;;;;27.07;15.93;;;;;;;13.87;79.24;97264.49;1707366;83;25277;-87
2021/09/13 06:03:06;;;;;;;23.45;15.88;;;;;;;13.90;79.21;97262.64;1681671;84;25726;-92
2021/09/13 06:05:33;;;;;;;20.80;15.85;;;;;;;13.91;79.08;97265.13;1678788;84;25850;-87
2021/09/13 06:07:59;;;;;;;25.05;15.58;;;;;;;13.93;79.15;97263.53;1678787;84;27552;-90
2021/09/13 06:10:26;;;;;;;22.82;16.55;;;;;;;13.96;79.18;97263.07;1678703;84;25648;-89
2021/09/13 06:12:53;;;;;;;22.65;17.67;;;;;;;13.98;79.24;97261.78;1678637;84;25816;-90
2021/09/13 06:15:20;;;;;;;22.22;16.95;;;;;;;14.01;79.40;97259.92;1678877;84;25768;-89
2021/09/13 06:17:47;;;;;;;21.27;15.98;;;;;;;14.04;79.40;97265.41;1693505;84;25682;-85
2021/09/13 06:20:14;;;;;;;26.17;16.73;;;;;;;14.05;79.41;97273.33;1679482;84;28316;-87
2021/09/13 06:22:41;;;;;;;19.37;15.68;;;;;;;14.09;79.50;97270.98;1686680;84;25706;-86
2021/09/13 06:25:09;;;;;;;22.30;16.87;;;;;;;14.12;79.58;97270.51;1702019;83;25731;-86
2021/09/13 06:27:35;;;;;;;21.37;17.25;;;;;;;14.11;79.61;97273.45;1687438;84;25766;-86
2021/09/13 06:30:02;;;;;;;23.62;16.48;;;;;;;14.12;79.74;97264.25;1689410;84;25681;-85
2021/09/13 06:32:30;;;;;;;18.02;16.00;;;;;;;14.10;79.79;97263.66;1693388;83;27304;-91
2021/09/13 06:34:57;;;;;;;20.37;16.62;;;;;;;14.12;79.71;97257.47;1685309;84;25770;-90
2021/09/13 06:37:23;;;;;;;23.55;17.52;;;;;;;14.15;79.83;97265.11;1691846;84;25724;-90
2021/09/13 06:39:51;;;;;;;20.92;17.65;;;;;;;14.21;79.97;97271.80;1691145;84;25734;-89
2021/09/13 06:42:18;;;;;;;23.52;18.17;;;;;;;14.26;80.03;97267.81;1688403;82;25668;-89
2021/09/13 06:44:47;;;;;;;25.57;19.70;;;;;;;14.26;80.18;97262.91;1697230;84;27414;-89
2021/09/13 06:47:22;;;;;;;24.30;19.60;;;;;;;14.29;80.24;97270.59;1680466;84;25798;-89
2021/09/13 06:49:42;;;;;;;24.85;21.50;;;;;;;14.35;80.31;97273.73;1677913;84;25768;-88
2021/09/13 06:52:08;;;;;;;24.72;20.90;;;;;;;14.41;80.31;97274.15;1680605;84;26411;-88
2021/09/13 06:54:35;;;;;;;26.23;22.25;;;;;;;14.47;80.39;97270.49;1680544;84;25448;-88
2021/09/13 06:57:02;;;;;;;28.83;22.70;;;;;;;14.54;80.54;97273.89;1680682;84;28270;-89
2021/09/13 06:59:28;;;;;;;24.77;22.17;;;;;;;14.62;80.53;97281.66;1680517;83;26464;-89
2021/09/13 07:01:55;;;;;;;25.48;21.37;;;;;;;14.70;80.56;97286.73;1691804;84;25640;-89
2021/09/13 07:04:23;;;;;;;25.75;21.82;;;;;;;14.77;80.60;97284.70;1705942;82;25849;-90
2021/09/13 07:06:52;;;;;;;28.32;21.73;;;;;;;14.86;80.76;97283.77;1680667;84;25755;-88
2021/09/13 07:09:20;;;;;;;25.90;19.77;;;;;;;14.93;80.67;97280.93;1680610;84;27496;-89
2021/09/13 07:11:46;;;;;;;23.75;20.23;;;;;;;14.99;80.63;97288.10;1679795;84;25864;-89
2021/09/13 07:14:13;;;;;;;24.30;19.25;;;;;;;15.03;80.57;97293.36;1679732;84;25805;-89
2021/09/13 07:16:39;;;;;;;22.65;18.07;;;;;;;15.06;80.53;97293.70;1678885;84;25879;-89
2021/09/13 07:19:06;;;;;;;20.37;17.75;;;;;;;15.10;80.56;97289.41;1693843;83;25265;-89
2021/09/13 07:21:33;;;;;;;20.68;17.52;;;;;;;15.15;80.52;97294.13;1739733;81;27593;-89
2021/09/13 07:24:00;;;;;;;19.57;17.37;;;;;;;15.21;80.52;97293.71;1726950;82;25856;-88
2021/09/13 07:26:27;;;;;;;22.20;17.82;;;;;;;15.27;80.50;97294.08;1739596;82;25677;-89
2021/09/13 07:28:54;;;;;;;23.55;17.00;;;;;;;15.33;80.43;97294.48;1739506;82;26406;-89
2021/09/13 07:31:20;;;;;;;20.00;17.42;;;;;;;15.39;80.35;97293.48;1739597;82;25733;-88
2021/09/13 07:33:47;;;;;;;23.95;17.80;;;;;;;15.43;80.41;97294.13;1739682;82;27000;-89
2021/09/13 07:36:14;;;;;;;21.17;18.48;;;;;;;15.52;80.30;97289.64;1740182;82;25788;-89
2021/09/13 07:38:41;;;;;;;21.90;17.77;;;;;;;15.60;80.25;97292.80;1740165;82;26007;-89
2021/09/13 07:41:07;;;;;;;23.55;18.48;;;;;;;15.73;80.28;97299.82;1740163;82;25742;-92
2021/09/13 07:43:34;;;;;;;20.85;17.77;;;;;;;15.89;80.55;97294.93;1740185;82;25205;-92
2021/09/13 07:46:01;;;;;;;21.77;17.95;;;;;;;16.01;80.48;97297.03;1739743;82;27430;-92
2021/09/13 07:48:27;;;;;;;21.80;17.32;;;;;;;16.08;80.19;97285.95;1740122;82;25841;-92
2021/09/13 07:50:54;;;;;;;19.15;16.75;;;;;;;16.13;79.94;97291.48;1740071;82;25734;-92
2021/09/13 07:53:20;;;;;;;19.25;16.30;;;;;;;16.27;79.95;97283.27;1740219;82;25913;-92
2021/09/13 07:55:47;;;;;;;20.97;17.17;;;;;;;16.49;80.04;97288.73;1740345;82;25697;-88
2021/09/13 07:58:13;;;;;;;18.85;15.72;;;;;;;16.66;80.04;97297.73;1740119;82;27358;-93
2021/09/13 08:00:40;;;;;;;17.55;14.63;;;;;;;16.81;79.76;97306.62;1739974;82;25889;-92
2021/09/13 08:03:07;;;;;;;18.77;15.25;;;;;;;16.89;79.33;97300.21;1740256;82;25701;-93
2021/09/13 08:05:33;;;;;;;19.17;16.73;;;;;;;16.95;79.00;97300.26;1740222;82;25717;-91
2021/09/13 08:08:00;;;;;;;18.77;16.32;;;;;;;16.98;79.11;97291.03;1740125;82;25854;-92
2021/09/13 08:10:26;;;;;;;16.30;14.58;;;;;;;17.04;79.02;97294.09;1740332;82;27279;-92
2021/09/13 08:12:53;;;;;;;17.57;15.23;;;;;;;17.18;79.04;97292.63;1740194;82;25788;-93
2021/09/13 08:15:23;;;;;;;17.70;14.65;;;;;;;17.44;79.33;97299.17;1740162;82;25694;-90
2021/09/13 08:17:48;;;;;;;15.68;13.98;;;;;;;17.73;78.99;97303.04;1739921;82;25690;-92
2021/09/13 08:20:15;;;;;;;13.83;12.47;;;;;;;17.83;78.16;97294.93;1740235;82;25665;-93
2021/09/13 08:22:41;;;;;;;14.60;12.68;;;;;;;17.78;77.46;97302.52;1740173;82;27334;-92
2021/09/13 08:25:08;;;;;;;13.88;12.47;;;;;;;17.92;77.62;97301.55;1740196;82;25754;-93
2021/09/13 08:27:35;;;;;;;13.48;12.18;;;;;;;18.29;77.71;97307.84;1740248;82;26484;-94
2021/09/13 08:30:02;;;;;;;13.22;11.60;;;;;;;18.70;77.38;97304.86;1740077;82;26537;-93
2021/09/13 08:32:28;;;;;;;14.33;11.78;;;;;;;19.12;76.83;97318.98;1740332;82;26398;-93
2021/09/13 08:34:55;;;;;;;15.28;11.93;;;;;;;19.26;75.49;97316.57;1739318;82;27586;-89
2021/09/13 08:37:22;;;;;;;13.98;11.90;;;;;;;19.22;75.33;97316.82;1739445;82;25455;-93
2021/09/13 08:39:48;;;;;;;13.53;12.23;;;;;;;19.21;75.07;97316.54;1739486;82;25694;-92
2021/09/13 08:42:16;;;;;;;14.68;12.37;;;;;;;19.18;75.08;97313.82;1739706;82;26438;-93
2021/09/13 08:44:46;;;;;;;14.78;12.47;;;;;;;19.13;74.91;97315.70;1739712;82;25762;-92
2021/09/13 08:47:23;;;;;;;14.63;13.03;;;;;;;19.08;74.75;97314.33;1738987;82;27434;-88
2021/09/13 08:49:43;;;;;;;14.85;13.35;;;;;;;19.06;74.87;97318.16;1737002;82;34860;-92
2021/09/13 08:52:10;;;;;;;14.05;12.63;;;;;;;19.06;74.73;97319.52;1714508;82;25780;-93
2021/09/13 08:54:38;;;;;;;13.95;12.45;;;;;;;19.06;74.23;97311.86;1726465;81;25887;-93
2021/09/13 08:57:07;;;;;;;15.32;12.63;;;;;;;19.08;74.32;97313.21;1727247;82;25809;-93
2021/09/13 08:59:38;;;;;;;16.23;12.82;;;;;;;19.34;74.48;97311.94;1727371;82;27422;-93
2021/09/13 09:02:05;;;;;;;15.30;13.53;;;;;;;19.52;74.34;97310.11;1727513;82;25883;-93
2021/09/13 09:04:33;;;;;;;15.53;13.00;;;;;;;19.86;74.37;97305.48;1724209;82;25856;-93
2021/09/13 09:07:09;;;;;;;16.32;14.18;;;;;;;20.02;73.85;97304.41;1710025;81;26439;-93
2021/09/13 09:09:36;;;;;;;14.75;13.00;;;;;;;20.08;73.97;97304.67;1708401;83;25751;-94
2021/09/13 09:12:09;;;;;;;14.60;13.10;;;;;;;20.10;73.63;97302.48;1696148;82;27395;-94
2021/09/13 09:14:46;;;;;;;17.02;14.13;;;;;;;20.07;73.45;97303.84;1739339;81;25855;-94
2021/09/13 09:17:25;;;;;;;15.63;14.03;;;;;;;20.21;73.50;97300.55;1726366;82;25788;-93
2021/09/13 09:20:06;;;;;;;17.98;14.60;;;;;;;20.48;73.41;97305.22;1723581;82;25744;-95
2021/09/13 09:22:37;;;;;;;17.82;14.33;;;;;;;20.88;73.52;97300.18;1713110;82;25307;-93
2021/09/13 09:25:05;;;;;;;15.88;13.50;;;;;;;21.28;73.09;97297.00;1726660;82;27448;-94
2021/09/13 09:27:32;;;;;;;15.08;13.58;;;;;;;21.60;72.49;97297.94;1727149;81;25740;-96
2021/09/13 09:30:12;;;;;;;17.23;14.98;;;;;;;21.72;71.72;97302.52;1699964;81;25790;-96
2021/09/13 09:32:41;;;;;;;16.17;14.30;;;;;;;21.63;71.12;97294.59;1727443;82;26426;-95
2021/09/13 09:35:17;;;;;;;15.55;13.70;;;;;;;21.46;70.99;97279.34;1727123;82;25283;-96
2021/09/13 09:37:43;;;;;;;15.03;13.58;;;;;;;21.46;70.99;97279.34;1728008;82;27459;-96
2021/09/13 09:40:12;;;;;;;16.52;14.43;;;;;;;21.42;70.82;97293.36;1710750;82;25796;-95
2021/09/13 09:42:39;;;;;;;17.23;15.30;;;;;;;21.42;70.82;97293.36;1703904;81;25292;-95
2021/09/13 09:45:14;;;;;;;17.52;15.55;;;;;;;21.30;70.39;97289.31;1727076;81;25852;-96
2021/09/13 09:47:41;;;;;;;16.35;14.60;;;;;;;21.13;70.39;97280.84;1682193;83;25763;-96
2021/09/13 09:50:08;;;;;;;18.45;16.45;;;;;;;21.16;70.34;97289.06;1727307;82;27616;-96
2021/09/13 09:52:41;;;;;;;18.37;16.48;;;;;;;21.04;70.14;97298.17;1723846;81;25669;-94
2021/09/13 09:55:20;;;;;;;17.25;15.40;;;;;;;20.90;70.34;97294.39;1740085;81;25816;-87
2021/09/13 09:58:13;;;;;;;19.23;16.00;;;;;;;20.91;70.21;97289.17;1727199;82;25754;-96
2021/09/13 10:00:38;;;;;;;23.02;17.50;;;;;;;20.96;70.38;97283.12;1739375;82;25284;-92
2021/09/13 10:03:06;;;;;;;21.60;15.58;;;;;;;21.28;70.52;97287.39;1724907;81;27469;-96
2021/09/13 10:05:34;;;;;;;18.85;14.95;;;;;;;21.61;70.14;97285.30;1707870;83;25291;-96
2021/09/13 10:08:01;;;;;;;17.07;15.28;;;;;;;21.78;69.75;97287.08;1685758;83;25280;-96
2021/09/13 10:10:31;;;;;;;15.38;13.15;;;;;;;22.00;69.47;97281.72;1706473;82;25725;-95
2021/09/13 10:13:00;;;;;;;15.90;14.23;;;;;;;22.25;69.12;97275.44;1709990;83;26406;-96
2021/09/13 10:15:28;;;;;;;15.85;14.07;;;;;;;22.55;68.77;97279.02;1740120;82;27952;-93
2021/09/13 10:17:55;;;;;;;15.05;13.45;;;;;;;22.80;68.45;97271.06;1741408;82;25308;-96
2021/09/13 10:20:23;;;;;;;15.05;12.20;;;;;;;23.01;68.01;97274.39;1740876;81;25307;-89
2021/09/13 10:22:54;;;;;;;14.95;12.55;;;;;;;23.15;67.63;97276.13;1726220;82;26508;-96
2021/09/13 10:25:21;;;;;;;14.98;12.98;;;;;;;23.28;66.85;97278.16;1731973;78;25303;-95
2021/09/13 10:27:48;;;;;;;14.90;12.95;;;;;;;23.38;66.35;97275.82;1731848;78;27490;-86
2021/09/13 10:30:25;;;;;;;14.83;13.20;;;;;;;23.23;66.09;97269.96;1731917;79;25335;-94
2021/09/13 10:33:11;;;;;;;14.30;12.78;;;;;;;23.08;66.46;97276.21;1708965;83;25757;-91
2021/09/13 10:35:54;;;;;;;15.55;13.53;;;;;;;23.16;66.12;97272.83;1713037;82;25923;-89
2021/09/13 10:38:44;;;;;;;15.88;14.18;;;;;;;23.24;65.73;97277.11;1716569;82;25313;-96
2021/09/13 10:41:32;;;;;;;15.95;14.28;;;;;;;23.24;65.63;97267.47;1728110;82;28228;-95
2021/09/13 10:44:06;;;;;;;13.72;12.30;;;;;;;23.37;65.45;97263.72;1742808;82;25255;-96
2021/09/13 10:47:04;;;;;;;15.72;13.70;;;;;;;23.50;65.05;97261.61;1742831;82;25849;-89
2021/09/13 10:49:32;;;;;;;13.45;12.05;;;;;;;23.67;64.85;97256.41;1743015;80;25752;-84
2021/09/13 10:52:31;;;;;;;17.95;12.33;;;;;;;23.80;64.04;97263.91;1730876;78;25257;-89
2021/09/13 10:55:22;;;;;;;12.88;11.57;;;;;;;23.87;63.77;97257.48;1712234;82;27386;-95
2021/09/13 10:58:03;;;;;;;11.73;10.53;;;;;;;24.01;63.93;97252.84;1727948;81;25809;-94
2021/09/13 11:00:44;;;;;;;13.05;10.68;;;;;;;24.19;63.11;97247.00;1728560;82;26127;-96
2021/09/13 11:03:29;;;;;;;12.30;11.10;;;;;;;24.28;62.48;97245.77;1727183;82;25832;-94
2021/09/13 11:06:13;;;;;;;12.35;11.15;;;;;;;24.38;61.64;97246.99;1727668;82;25742;-94
2021/09/13 11:08:55;;;;;;;13.20;11.80;;;;;;;24.45;61.24;97243.27;1727630;81;27402;-95
2021/09/13 11:11:38;;;;;;;13.08;11.75;;;;;;;24.54;60.96;97240.05;1724237;82;25815;-88
2021/09/13 11:14:20;;;;;;;11.85;10.70;;;;;;;24.63;60.87;97242.37;1714303;81;25324;-96
2021/09/13 11:16:54;;;;;;;13.75;12.23;;;;;;;24.71;60.63;97233.38;1727994;81;25805;-88
2021/09/13 11:19:23;;;;;;;15.25;11.95;;;;;;;24.63;60.47;97236.86;1727132;82;25766;-90
2021/09/13 11:21:54;;;;;;;13.60;11.45;;;;;;;24.56;59.83;97236.42;1727430;82;28117;-87
2021/09/13 11:24:29;;;;;;;12.85;11.65;;;;;;;24.43;59.60;97241.36;1727519;81;25742;-92
2021/09/13 11:26:59;;;;;;;13.83;12.23;;;;;;;24.25;59.43;97239.50;1727617;82;25846;-96